Time;durP1;ratioP1;P1;durP2;ratioP2;P2;SDS_P1;SDS_P2;PMS_P1;PMS_P2;Temp;Humidity;BMP_temperature;BMP_pressure;BME280_temperature;BME280_humidity;BME280_pressure;Samples;Min_cycle;Max_cycle;Signal;HPM_P1;HPM_P2
2020/12/15 00:02:07;;;;;;;10.30;7.43;;;3.60;81.20;;;;;;6155324;23;20154;-68
2020/12/15 00:04:35;;;;;;;9.73;7.50;;;3.60;81.20;;;;;;6154748;23;20163;-68
2020/12/15 00:07:06;;;;;;;9.52;7.50;;;3.60;81.30;;;;;;6155832;23;20155;-68
2020/12/15 00:09:40;;;;;;;11.02;8.20;;;3.60;81.90;;;;;;6154306;23;20186;-68
2020/12/15 00:12:07;;;;;;;12.02;8.32;;;3.60;81.60;;;;;;6154941;23;20175;-68
2020/12/15 00:14:34;;;;;;;12.40;8.27;;;3.60;82.30;;;;;;6155390;23;20160;-68
2020/12/15 00:17:08;;;;;;;12.55;8.70;;;3.60;82.40;;;;;;6155221;23;20226;-68
2020/12/15 00:19:36;;;;;;;9.15;7.28;;;3.50;82.70;;;;;;6154589;23;20163;-68
2020/12/15 00:22:10;;;;;;;7.07;5.75;;;3.50;82.60;;;;;;6155473;23;20152;-68
2020/12/15 00:27:59;;;;;;;13.98;6.80;;;3.30;83.30;;;;;;6153714;23;20150;-68
2020/12/15 00:33:48;;;;;;;11.77;7.65;;;3.30;84.00;;;;;;6154540;23;20174;-68
2020/12/15 00:36:43;;;;;;;7.32;5.28;;;3.30;84.10;;;;;;6155057;23;20568;-68
2020/12/15 00:39:10;;;;;;;9.75;6.50;;;3.30;83.50;;;;;;6154944;23;20152;-68
2020/12/15 00:45:07;;;;;;;9.07;6.25;;;3.40;83.00;;;;;;6125315;23;20167;-68
2020/12/15 00:54:23;;;;;;;10.48;7.45;;;3.40;81.30;;;;;;6036220;23;20158;-68
2020/12/15 00:57:42;;;;;;;10.77;8.65;;;3.40;81.50;;;;;;6036570;23;20231;-69
2020/12/15 01:00:10;;;;;;;12.40;9.10;;;3.30;81.40;;;;;;6035549;23;20177;-67
2020/12/15 01:03:22;;;;;;;16.30;8.55;;;3.30;81.80;;;;;;6036564;23;20226;-68
2020/12/15 01:05:51;;;;;;;9.27;6.30;;;3.30;81.40;;;;;;6036392;23;20159;-68
2020/12/15 01:08:18;;;;;;;9.18;6.90;;;3.30;80.80;;;;;;6036532;23;20169;-68
2020/12/15 01:10:45;;;;;;;8.95;6.88;;;3.20;81.00;;;;;;6037984;23;20178;-68
2020/12/15 01:13:12;;;;;;;11.90;7.18;;;3.20;81.10;;;;;;6038353;23;20237;-68
2020/12/15 01:19:01;;;;;;;10.38;6.72;;;3.20;80.90;;;;;;6126973;23;20207;-68
2020/12/15 01:24:49;;;;;;;8.50;6.07;;;3.10;80.90;;;;;;6126752;23;20199;-68
2020/12/15 01:30:30;;;;;;;10.60;6.45;;;3.00;80.40;;;;;;6126825;23;20192;-67
2020/12/15 01:33:14;;;;;;;7.82;5.90;;;3.00;80.20;;;;;;6127607;23;20239;-68
2020/12/15 01:35:41;;;;;;;8.05;5.80;;;2.90;80.30;;;;;;6126616;23;20211;-68
2020/12/15 01:38:18;;;;;;;8.10;6.03;;;2.90;80.50;;;;;;6127454;23;20517;-68
2020/12/15 01:40:50;;;;;;;8.23;5.57;;;2.90;80.90;;;;;;6126645;23;20164;-68
2020/12/15 01:43:18;;;;;;;9.48;6.07;;;2.90;80.90;;;;;;6136025;23;20234;-67
2020/12/15 01:45:45;;;;;;;8.75;6.60;;;2.90;81.40;;;;;;6126249;23;20190;-68
2020/12/15 01:48:12;;;;;;;9.77;6.90;;;2.90;81.70;;;;;;6126649;23;20247;-68
2020/12/15 01:50:40;;;;;;;9.25;6.57;;;2.90;81.90;;;;;;6126737;23;20195;-68
2020/12/15 01:56:23;;;;;;;7.45;6.32;;;2.90;81.60;;;;;;6127012;23;20152;-67
2020/12/15 01:58:54;;;;;;;11.20;6.70;;;2.90;81.40;;;;;;6126992;23;20592;-67
2020/12/15 02:02:04;;;;;;;8.80;5.85;;;2.90;80.70;;;;;;6126339;23;20153;-68
2020/12/15 02:04:35;;;;;;;5.97;5.25;;;2.80;79.00;;;;;;6126526;23;20157;-68
2020/12/15 02:07:03;;;;;;;12.02;5.45;;;2.70;80.30;;;;;;6127041;23;20489;-68
2020/12/15 02:09:32;;;;;;;10.90;6.20;;;2.70;80.90;;;;;;6126040;23;20191;-68
2020/12/15 02:22:21;;;;;;;9.93;6.55;;;2.90;81.40;;;;;;6008337;23;20158;-68
2020/12/15 02:28:09;;;;;;;6.75;4.72;;;2.90;81.60;;;;;;6008783;23;20154;-68
2020/12/15 02:33:58;;;;;;;7.70;5.00;;;2.80;80.90;;;;;;6009110;23;20154;-68
2020/12/15 02:36:30;;;;;;;5.47;4.90;;;2.80;81.50;;;;;;6009105;23;20155;-68
2020/12/15 02:42:19;;;;;;;7.68;5.38;;;2.90;82.50;;;;;;6126244;23;20283;-68
2020/12/15 02:44:48;;;;;;;14.68;7.68;;;2.90;82.90;;;;;;6143744;23;20510;-68
2020/12/15 02:50:37;;;;;;;12.15;7.80;;;3.00;84.60;;;;;;6155496;23;20622;-68
2020/12/15 02:53:07;;;;;;;13.80;6.50;;;2.90;85.50;;;;;;6156003;23;20152;-68
2020/12/15 02:55:33;;;;;;;22.08;7.38;;;2.90;86.30;;;;;;6155872;23;20152;-68
2020/12/15 02:58:01;;;;;;;15.50;7.25;;;2.90;87.30;;;;;;6155778;23;20164;-68
2020/12/15 03:00:28;;;;;;;16.52;9.38;;;3.00;87.60;;;;;;6155852;23;20148;-68
2020/12/15 03:02:55;;;;;;;17.50;7.95;;;3.00;86.90;;;;;;6155163;23;20160;-68
2020/12/15 03:05:22;;;;;;;18.58;7.97;;;3.00;86.40;;;;;;6155849;23;20154;-68
2020/12/15 03:11:11;;;;;;;15.07;6.80;;;2.90;88.10;;;;;;6153955;23;20222;-68
2020/12/15 03:16:51;;;;;;;12.00;6.82;;;2.80;89.40;;;;;;6155342;23;20170;-68
2020/12/15 03:19:50;;;;;;;13.18;7.30;;;2.80;89.20;;;;;;6155577;23;20167;-68
2020/12/15 03:25:39;;;;;;;10.55;6.43;;;2.80;90.10;;;;;;6155080;23;20150;-68
2020/12/15 03:31:28;;;;;;;8.93;5.88;;;2.90;88.40;;;;;;6155002;23;20159;-68
2020/12/15 03:37:17;;;;;;;7.82;6.38;;;2.90;88.40;;;;;;6155153;23;20155;-68
2020/12/15 03:42:56;;;;;;;9.90;5.97;;;3.10;87.60;;;;;;6154716;23;20167;-68
2020/12/15 03:45:30;;;;;;;7.03;5.03;;;3.10;87.80;;;;;;6152243;23;20179;-68
2020/12/15 03:47:59;;;;;;;7.22;5.50;;;3.20;87.90;;;;;;6125839;23;20157;-68
2020/12/15 03:50:29;;;;;;;7.28;5.25;;;3.20;87.80;;;;;;6126010;23;20639;-68
2020/12/15 03:56:18;;;;;;;7.10;5.15;;;3.30;87.90;;;;;;6125577;23;20171;-68
2020/12/15 03:58:45;;;;;;;8.70;5.82;;;3.30;88.10;;;;;;6125671;23;20604;-68
2020/12/15 04:01:11;;;;;;;11.77;6.15;;;3.40;87.70;;;;;;6125540;23;20227;-68
2020/12/15 04:07:01;;;;;;;8.32;5.88;;;3.50;87.60;;;;;;6125764;23;20599;-68
2020/12/15 04:13:03;;;;;;;6.45;4.93;;;3.60;87.70;;;;;;6125773;23;20167;-68
2020/12/15 04:15:33;;;;;;;7.07;4.57;;;3.70;86.80;;;;;;6126173;23;20159;-68
2020/12/15 04:21:22;;;;;;;7.40;5.07;;;3.70;86.70;;;;;;6125838;23;20468;-68
2020/12/15 04:23:49;;;;;;;6.22;4.70;;;3.70;87.20;;;;;;6126645;23;20164;-68
2020/12/15 04:26:16;;;;;;;6.32;5.00;;;3.70;87.60;;;;;;6125777;23;20157;-68
2020/12/15 04:32:05;;;;;;;6.85;4.60;;;3.70;87.70;;;;;;6125340;23;20164;-68
2020/12/15 04:37:44;;;;;;;6.30;5.28;;;3.80;88.00;;;;;;6125215;23;20183;-68
2020/12/15 04:40:12;;;;;;;6.30;5.65;;;3.80;88.10;;;;;;6125920;23;20546;-68
2020/12/15 04:42:39;;;;;;;10.95;6.05;;;3.90;88.00;;;;;;6125942;23;20183;-68
2020/12/15 04:48:57;;;;;;;7.30;5.30;;;4.00;86.70;;;;;;6155996;23;20499;-68
2020/12/15 04:51:30;;;;;;;6.43;5.07;;;4.00;86.40;;;;;;6155913;23;20512;-68
2020/12/15 04:54:03;;;;;;;7.88;5.22;;;4.00;86.00;;;;;;6131315;23;20191;-68
2020/12/15 04:56:33;;;;;;;7.07;5.20;;;4.00;85.60;;;;;;6157274;23;20152;-68
2020/12/15 04:59:00;;;;;;;6.35;4.03;;;4.10;85.50;;;;;;6157078;23;20159;-68
2020/12/15 05:01:28;;;;;;;6.57;4.88;;;4.10;85.00;;;;;;6156576;23;20619;-68
2020/12/15 05:03:55;;;;;;;8.20;5.10;;;4.10;84.30;;;;;;6157304;23;20198;-68
2020/12/15 05:06:27;;;;;;;6.97;4.88;;;4.10;84.10;;;;;;6156739;23;20234;-68
2020/12/15 05:12:17;;;;;;;6.32;4.90;;;4.00;84.20;;;;;;6156925;23;20163;-68
2020/12/15 05:14:51;;;;;;;5.18;4.40;;;4.00;84.40;;;;;;6157270;23;20201;-68
2020/12/15 05:24:10;;;;;;;6.95;5.20;;;4.00;84.30;;;;;;6156177;23;20150;-68
2020/12/15 05:30:08;;;;;;;6.95;5.13;;;3.90;84.20;;;;;;6157143;23;20178;-68
2020/12/15 05:32:37;;;;;;;5.47;3.90;;;3.90;84.20;;;;;;6156121;23;20478;-68
2020/12/15 05:35:34;;;;;;;7.13;4.72;;;3.90;84.40;;;;;;6156848;23;20199;-68
2020/12/15 05:38:02;;;;;;;7.68;4.25;;;3.90;84.60;;;;;;6157360;23;20155;-68
2020/12/15 05:40:32;;;;;;;6.28;4.47;;;3.90;84.10;;;;;;6156285;23;20639;-68
2020/12/15 05:46:23;;;;;;;6.30;4.68;;;3.90;84.50;;;;;;6156550;23;20146;-68
2020/12/15 05:51:54;;;;;;;5.40;4.57;;;3.80;85.00;;;;;;6157202;23;20151;-68
2020/12/15 05:54:58;;;;;;;6.90;5.22;;;3.90;85.00;;;;;;6157531;23;20148;-68
2020/12/15 05:57:27;;;;;;;7.25;5.43;;;3.90;84.90;;;;;;6156721;23;20179;-68
2020/12/15 05:59:54;;;;;;;6.20;5.22;;;3.90;84.90;;;;;;6156678;23;20168;-68
2020/12/15 06:08:49;;;;;;;6.50;5.85;;;3.90;84.90;;;;;;6155682;23;20159;-68
2020/12/15 06:11:19;;;;;;;6.75;5.00;;;4.00;85.30;;;;;;6155907;23;20337;-68
2020/12/15 06:14:40;;;;;;;6.28;5.60;;;4.00;85.40;;;;;;6156978;23;20148;-68
2020/12/15 06:20:33;;;;;;;6.18;4.78;;;4.10;85.30;;;;;;6156084;23;20138;-68
2020/12/15 06:26:28;;;;;;;14.90;9.70;;;4.10;84.80;;;;;;6156242;23;20155;-68
2020/12/15 06:32:19;;;;;;;13.75;10.15;;;4.00;84.90;;;;;;6155550;23;20610;-68
2020/12/15 06:35:14;;;;;;;10.50;8.82;;;3.90;85.00;;;;;;6156047;23;20158;-68
2020/12/15 06:38:04;;;;;;;12.25;10.00;;;3.90;85.50;;;;;;6155305;23;20587;-68
2020/12/15 06:43:43;;;;;;;16.50;9.23;;;4.00;85.40;;;;;;6155762;23;20166;-68
2020/12/15 06:49:34;;;;;;;14.27;9.73;;;4.10;85.30;;;;;;6137990;23;20214;-68
2020/12/15 06:55:30;;;;;;;14.25;10.00;;;4.10;85.30;;;;;;6124089;23;20233;-68
2020/12/15 07:01:33;;;;;;;35.47;19.38;;;4.10;85.00;;;;;;6126108;23;20172;-68
2020/12/15 07:04:01;;;;;;;19.33;10.02;;;4.10;85.50;;;;;;6122038;23;20155;-68
2020/12/15 07:06:31;;;;;;;18.50;11.43;;;4.10;85.80;;;;;;6125955;23;20159;-68
2020/12/15 07:09:04;;;;;;;16.25;11.38;;;4.10;84.70;;;;;;6126524;23;20180;-69
2020/12/15 07:14:54;;;;;;;19.25;14.15;;;4.10;84.80;;;;;;6125888;23;20155;-68
2020/12/15 07:17:23;;;;;;;21.38;12.98;;;4.00;84.80;;;;;;6126208;23;20450;-68
2020/12/15 07:19:50;;;;;;;17.33;12.15;;;4.00;85.20;;;;;;6126038;23;20479;-68
2020/12/15 07:22:24;;;;;;;13.32;9.90;;;4.10;85.20;;;;;;6126358;23;20188;-68
2020/12/15 07:24:51;;;;;;;11.55;8.18;;;4.00;84.90;;;;;;6126376;23;20160;-68
2020/12/15 07:27:21;;;;;;;10.27;8.30;;;4.10;85.20;;;;;;6126707;23;20199;-68
2020/12/15 07:36:41;;;;;;;7.20;5.88;;;4.10;85.60;;;;;;6126666;23;20235;-68
2020/12/15 07:39:08;;;;;;;7.53;6.00;;;4.10;85.20;;;;;;6126130;23;20507;-68
2020/12/15 07:41:38;;;;;;;10.00;7.20;;;4.10;85.50;;;;;;6126057;23;20167;-68
2020/12/15 07:47:45;;;;;;;11.32;7.65;;;4.10;85.50;;;;;;6126072;23;20143;-68
2020/12/15 07:56:34;;;;;;;9.65;7.55;;;4.30;85.30;;;;;;6125885;23;20174;-68
2020/12/15 07:59:01;;;;;;;11.05;7.15;;;4.40;85.80;;;;;;6126147;23;20175;-68
2020/12/15 08:02:17;;;;;;;10.00;7.35;;;4.40;85.50;;;;;;6126609;23;20473;-68
2020/12/15 08:04:46;;;;;;;9.82;6.95;;;4.50;85.10;;;;;;6125629;23;20227;-68
2020/12/15 08:07:20;;;;;;;11.68;7.90;;;4.50;84.70;;;;;;6125162;23;20149;-68
2020/12/15 08:09:51;;;;;;;12.45;8.15;;;4.60;85.10;;;;;;6124572;23;20259;-69
2020/12/15 08:12:18;;;;;;;12.05;8.63;;;4.70;84.70;;;;;;6124755;23;20164;-68
2020/12/15 08:14:46;;;;;;;12.50;8.23;;;4.80;84.50;;;;;;6125267;23;20149;-68
2020/12/15 08:17:13;;;;;;;12.57;9.90;;;4.90;84.70;;;;;;6125573;23;20164;-68
2020/12/15 08:20:04;;;;;;;15.27;10.75;;;5.00;84.70;;;;;;6126694;23;20472;-68
2020/12/15 08:22:34;;;;;;;14.93;8.82;;;5.10;83.80;;;;;;6127325;23;20193;-68
2020/12/15 08:28:33;;;;;;;12.63;9.07;;;5.30;83.70;;;;;;6128213;23;20604;-68
2020/12/15 08:34:37;;;;;;;19.88;13.27;;;5.40;82.00;;;;;;6128241;23;20497;-68
2020/12/15 08:37:13;;;;;;;19.60;15.18;;;5.50;82.50;;;;;;6126959;23;20157;-68
2020/12/15 08:39:42;;;;;;;16.40;13.45;;;5.60;82.60;;;;;;6126913;23;20513;-68
2020/12/15 08:45:34;;;;;;;15.30;9.13;;;5.90;82.00;;;;;;6127705;23;20170;-68
2020/12/15 08:48:03;;;;;;;17.30;9.15;;;6.00;81.60;;;;;;6127308;23;20228;-68
2020/12/15 08:50:34;;;;;;;11.10;7.57;;;6.10;80.50;;;;;;6140801;23;20192;-68
2020/12/15 08:53:35;;;;;;;12.13;7.07;;;6.20;80.60;;;;;;6128265;23;20567;-68
2020/12/15 08:59:17;;;;;;;9.40;7.25;;;6.50;80.70;;;;;;6126816;23;20164;-69
2020/12/15 09:01:46;;;;;;;8.40;7.45;;;6.60;77.80;;;;;;6126316;23;20169;-68
2020/12/15 09:04:39;;;;;;;11.60;8.23;;;6.60;76.40;;;;;;6126574;23;20165;-68
2020/12/15 09:07:17;;;;;;;10.50;7.35;;;6.70;76.80;;;;;;6100452;23;20164;-68
2020/12/15 09:09:44;;;;;;;10.18;7.68;;;6.70;77.40;;;;;;6125588;23;20184;-68
2020/12/15 09:12:11;;;;;;;11.07;9.43;;;6.80;77.50;;;;;;6126330;23;20169;-68
2020/12/15 09:14:38;;;;;;;10.90;7.57;;;6.90;77.50;;;;;;6126918;23;20608;-68
2020/12/15 09:17:05;;;;;;;8.55;7.15;;;6.90;76.40;;;;;;6125801;23;20605;-69
2020/12/15 09:19:40;;;;;;;10.82;7.75;;;7.10;77.00;;;;;;6126643;23;20215;-69
2020/12/15 09:22:06;;;;;;;7.68;6.95;;;7.30;77.00;;;;;;6125956;23;20463;-69
2020/12/15 09:24:44;;;;;;;7.95;6.50;;;7.60;77.00;;;;;;6125998;23;20209;-69
2020/12/15 09:27:18;;;;;;;9.38;6.43;;;8.00;75.50;;;;;;6126046;23;20928;-68
2020/12/15 09:29:45;;;;;;;7.60;6.28;;;8.30;74.50;;;;;;6126145;23;20236;-68
2020/12/15 09:32:12;;;;;;;8.30;6.55;;;8.70;74.70;;;;;;6125904;23;20172;-68
2020/12/15 09:34:38;;;;;;;8.35;6.75;;;9.00;70.60;;;;;;6125897;23;20215;-69
2020/12/15 09:37:05;;;;;;;7.70;6.43;;;9.40;72.20;;;;;;6126473;23;20160;-68
2020/12/15 09:39:32;;;;;;;9.77;6.93;;;9.60;70.80;;;;;;6125748;23;20171;-69
2020/12/15 09:41:59;;;;;;;8.88;6.40;;;9.90;70.30;;;;;;6126249;23;20157;-69
2020/12/15 09:44:26;;;;;;;8.80;7.18;;;10.20;68.40;;;;;;6125722;23;20168;-68
2020/12/15 09:46:53;;;;;;;8.75;6.70;;;10.40;67.20;;;;;;6126316;23;20164;-68
2020/12/15 09:49:20;;;;;;;7.03;6.32;;;10.60;64.90;;;;;;6125567;23;20165;-69
2020/12/15 09:51:47;;;;;;;9.40;7.55;;;10.80;63.20;;;;;;6126247;23;20196;-69
2020/12/15 09:54:13;;;;;;;7.47;5.32;;;10.80;62.10;;;;;;6126387;23;20469;-69
2020/12/15 09:56:44;;;;;;;8.48;5.20;;;10.60;62.20;;;;;;6125808;23;20165;-68
2020/12/15 09:59:10;;;;;;;8.95;5.78;;;10.60;63.00;;;;;;6126024;23;20149;-69
2020/12/15 10:01:40;;;;;;;5.38;4.20;;;10.60;62.40;;;;;;6126057;23;20165;-68
2020/12/15 10:04:06;;;;;;;8.18;6.00;;;10.60;63.30;;;;;;6126030;23;20243;-69
2020/12/15 10:06:34;;;;;;;9.07;6.95;;;10.70;62.80;;;;;;6126661;23;20472;-69
2020/12/15 10:09:05;;;;;;;7.25;6.38;;;10.80;63.20;;;;;;6126160;23;20505;-69
2020/12/15 10:11:32;;;;;;;26.45;12.52;;;11.00;62.90;;;;;;6125966;23;20547;-69
2020/12/15 10:13:59;;;;;;;47.28;18.30;;;11.10;61.60;;;;;;6126319;23;20184;-68
2020/12/15 10:16:26;;;;;;;26.55;11.77;;;11.10;61.50;;;;;;6125726;23;20192;-69
2020/12/15 10:18:53;;;;;;;11.80;8.40;;;11.20;62.40;;;;;;6125635;23;20164;-68
2020/12/15 10:21:20;;;;;;;9.32;7.38;;;11.50;62.80;;;;;;6125826;23;20168;-68
2020/12/15 10:23:47;;;;;;;7.05;6.32;;;11.80;60.40;;;;;;6126325;23;20473;-69
2020/12/15 10:26:19;;;;;;;10.07;6.90;;;12.00;60.40;;;;;;6126101;23;20160;-68
2020/12/15 10:28:45;;;;;;;9.45;6.85;;;12.20;58.80;;;;;;6125967;23;20149;-68
2020/12/15 10:31:12;;;;;;;8.63;7.28;;;12.50;59.80;;;;;;6125752;23;20192;-69
2020/12/15 10:33:38;;;;;;;14.40;8.48;;;12.60;57.80;;;;;;6126641;23;20168;-69
2020/12/15 10:36:05;;;;;;;10.13;9.00;;;12.50;56.90;;;;;;6125653;23;20604;-68
2020/12/15 10:38:34;;;;;;;12.27;9.95;;;12.40;57.20;;;;;;6125673;23;20161;-69
2020/12/15 10:41:01;;;;;;;10.65;9.20;;;12.40;56.70;;;;;;6125859;23;20223;-69
2020/12/15 10:43:28;;;;;;;11.30;9.35;;;12.30;57.10;;;;;;6125672;23;20457;-69
2020/12/15 10:45:57;;;;;;;11.48;9.27;;;12.10;56.80;;;;;;6125366;23;20675;-68
2020/12/15 10:48:23;;;;;;;11.43;9.38;;;11.90;57.70;;;;;;6125509;23;20172;-68
2020/12/15 10:50:50;;;;;;;9.73;8.73;;;11.70;58.00;;;;;;6125761;23;20266;-69
2020/12/15 10:53:18;;;;;;;11.75;6.97;;;11.50;58.50;;;;;;6125093;23;20175;-69
2020/12/15 10:55:48;;;;;;;10.52;7.70;;;11.40;58.90;;;;;;6114011;23;20173;-69
2020/12/15 10:58:15;;;;;;;10.75;7.43;;;11.20;59.70;;;;;;6125404;23;20251;-69
2020/12/15 11:00:42;;;;;;;9.73;8.00;;;11.00;59.80;;;;;;6126100;23;20172;-69
2020/12/15 11:04:01;;;;;;;15.30;8.68;;;10.80;61.10;;;;;;6125523;23;20580;-69
2020/12/15 11:06:28;;;;;;;10.32;7.80;;;10.70;62.00;;;;;;6125864;23;20152;-68
2020/12/15 11:09:13;;;;;;;11.70;10.48;;;10.60;63.10;;;;;;6125676;23;20505;-69
2020/12/15 11:11:47;;;;;;;12.48;10.45;;;10.60;64.20;;;;;;6126407;23;20176;-69
2020/12/15 11:14:15;;;;;;;9.20;7.80;;;10.50;64.20;;;;;;6100530;23;20171;-69
2020/12/15 11:16:42;;;;;;;13.00;8.77;;;10.50;64.80;;;;;;6126018;23;20149;-70
2020/12/15 11:19:09;;;;;;;14.60;10.15;;;10.50;65.10;;;;;;6125968;23;20588;-68
2020/12/15 11:21:43;;;;;;;17.95;9.50;;;10.70;65.80;;;;;;6126241;23;20187;-69
2020/12/15 11:24:09;;;;;;;10.55;9.45;;;11.10;65.80;;;;;;6126661;23;20148;-68
2020/12/15 11:26:40;;;;;;;11.77;9.02;;;11.60;66.30;;;;;;6126271;23;20152;-70
2020/12/15 11:29:06;;;;;;;9.50;8.13;;;12.00;64.60;;;;;;6124678;23;20163;-69
2020/12/15 11:41:40;;;;;;;10.30;8.05;;;12.40;59.60;;;;;;6126424;23;20192;-69
2020/12/15 11:48:04;;;;;;;16.00;10.80;;;12.20;59.60;;;;;;6125785;23;20215;-69
2020/12/15 11:50:31;;;;;;;10.75;8.20;;;12.10;59.60;;;;;;6126388;23;20196;-69
2020/12/15 11:52:59;;;;;;;11.65;9.60;;;11.90;59.50;;;;;;6125363;23;20149;-68
2020/12/15 11:55:26;;;;;;;12.07;9.25;;;11.80;59.80;;;;;;6122816;23;20168;-68
2020/12/15 11:57:53;;;;;;;10.38;7.70;;;11.50;60.60;;;;;;6124840;23;20176;-68
2020/12/15 12:00:20;;;;;;;10.55;9.43;;;11.50;61.40;;;;;;6125047;23;20168;-68
2020/12/15 12:02:47;;;;;;;13.23;7.95;;;11.30;61.60;;;;;;6124773;23;20176;-68
2020/12/15 12:05:17;;;;;;;9.80;7.10;;;11.10;62.10;;;;;;6121825;23;20164;-69
2020/12/15 12:07:43;;;;;;;11.32;8.02;;;11.10;62.50;;;;;;6124415;23;20616;-69
2020/12/15 12:10:11;;;;;;;10.90;8.57;;;11.00;62.80;;;;;;6124560;23;20184;-69
2020/12/15 12:13:01;;;;;;;12.25;8.98;;;10.80;63.30;;;;;;6126161;23;20588;-68
2020/12/15 12:15:29;;;;;;;12.75;9.15;;;10.70;63.90;;;;;;6125514;23;20165;-68
2020/12/15 12:17:56;;;;;;;11.02;8.43;;;10.60;64.50;;;;;;6125106;23;20485;-69
2020/12/15 12:20:23;;;;;;;11.65;8.88;;;10.50;65.10;;;;;;6124894;23;20168;-68
2020/12/15 12:26:15;;;;;;;7.93;6.95;;;10.30;66.10;;;;;;6124547;23;20184;-68
2020/12/15 12:28:43;;;;;;;9.52;8.15;;;10.20;66.60;;;;;;6124322;23;20199;-69
2020/12/15 12:31:13;;;;;;;8.70;7.10;;;10.10;66.90;;;;;;6124536;23;20185;-68
2020/12/15 12:37:04;;;;;;;8.15;7.25;;;10.00;68.20;;;;;;6124949;23;20196;-68
2020/12/15 12:39:53;;;;;;;9.15;5.70;;;9.90;70.00;;;;;;6125343;23;20153;-69
2020/12/15 12:42:20;;;;;;;9.70;6.45;;;9.90;70.50;;;;;;6125197;23;20187;-68
2020/12/15 12:48:19;;;;;;;9.50;5.85;;;9.90;71.30;;;;;;6124971;23;20231;-69
2020/12/15 12:50:46;;;;;;;8.75;6.50;;;9.80;71.30;;;;;;6134374;23;20198;-68
2020/12/15 12:53:13;;;;;;;8.13;6.40;;;9.80;71.90;;;;;;6125573;23;20188;-68
2020/12/15 12:55:40;;;;;;;12.15;6.55;;;9.80;71.80;;;;;;6124368;23;20153;-68
2020/12/15 12:58:07;;;;;;;8.02;6.90;;;9.70;71.70;;;;;;6122355;23;20478;-69
2020/12/15 13:00:38;;;;;;;8.65;7.30;;;9.70;71.90;;;;;;6123421;23;20200;-68
2020/12/15 13:03:05;;;;;;;9.35;7.47;;;9.70;71.50;;;;;;6125331;23;20498;-68
2020/12/15 13:09:14;;;;;;;8.70;7.10;;;9.60;71.70;;;;;;6127863;23;20140;-68
2020/12/15 13:11:40;;;;;;;13.50;8.00;;;9.50;72.60;;;;;;6126200;23;20723;-68
2020/12/15 13:17:29;;;;;;;11.57;7.70;;;9.50;73.50;;;;;;6127674;23;20144;-69
2020/12/15 13:19:55;;;;;;;8.43;7.30;;;9.40;73.70;;;;;;6127558;23;20168;-68
2020/12/15 13:22:24;;;;;;;11.38;8.25;;;9.40;73.60;;;;;;6126439;23;20584;-68
2020/12/15 13:24:52;;;;;;;9.48;8.30;;;9.40;74.00;;;;;;6126934;23;20149;-68
2020/12/15 13:27:19;;;;;;;11.90;9.20;;;9.40;74.60;;;;;;6126309;23;20175;-69
2020/12/15 13:29:45;;;;;;;11.95;9.50;;;9.30;74.60;;;;;;6124578;23;20161;-68
2020/12/15 13:32:12;;;;;;;11.88;9.65;;;9.30;74.30;;;;;;6126137;23;20168;-68
2020/12/15 13:34:38;;;;;;;11.43;9.43;;;9.30;75.00;;;;;;6126215;23;20168;-68
2020/12/15 13:40:27;;;;;;;17.90;11.70;;;9.30;75.60;;;;;;6126022;23;20159;-69
2020/12/15 13:42:54;;;;;;;13.98;11.30;;;9.20;75.60;;;;;;6123941;23;20169;-69
2020/12/15 13:45:20;;;;;;;16.88;11.48;;;9.20;76.20;;;;;;6125812;23;20165;-68
2020/12/15 13:47:47;;;;;;;12.38;10.93;;;9.10;75.80;;;;;;6125543;23;20488;-68
2020/12/15 13:50:13;;;;;;;22.92;12.82;;;9.20;76.10;;;;;;6126486;23;20192;-68
2020/12/15 13:52:40;;;;;;;16.90;13.38;;;9.20;76.20;;;;;;6125906;23;20199;-68
2020/12/15 13:55:07;;;;;;;17.65;12.48;;;9.30;76.60;;;;;;6126135;23;20157;-68
2020/12/15 13:57:35;;;;;;;16.65;13.13;;;9.30;76.60;;;;;;6126600;23;20153;-68
2020/12/15 14:00:02;;;;;;;16.88;13.13;;;9.30;76.40;;;;;;6125557;23;20222;-69
2020/12/15 14:02:28;;;;;;;13.95;12.02;;;9.40;76.50;;;;;;6126060;23;20196;-68
2020/12/15 14:04:55;;;;;;;13.63;10.20;;;9.40;76.40;;;;;;6124544;23;20175;-69
2020/12/15 14:07:21;;;;;;;14.27;8.32;;;9.50;76.50;;;;;;6125179;23;20666;-69
2020/12/15 14:09:48;;;;;;;8.07;6.63;;;9.50;76.20;;;;;;6126074;23;20183;-69
2020/12/15 14:12:14;;;;;;;10.45;8.02;;;9.50;75.70;;;;;;6125215;23;20192;-68
2020/12/15 14:14:41;;;;;;;13.25;10.65;;;9.50;75.80;;;;;;6125098;23;20172;-68
2020/12/15 14:17:08;;;;;;;19.35;11.18;;;9.50;75.60;;;;;;6125249;23;20164;-68
2020/12/15 14:19:34;;;;;;;15.48;9.85;;;9.40;76.00;;;;;;6125766;23;20481;-69
2020/12/15 14:22:02;;;;;;;11.63;9.20;;;9.30;76.00;;;;;;6125165;23;20169;-68
2020/12/15 14:24:29;;;;;;;17.40;9.85;;;9.30;76.30;;;;;;6125489;23;20179;-69
2020/12/15 14:26:55;;;;;;;12.95;10.10;;;9.20;76.20;;;;;;6125848;23;20173;-68
2020/12/15 14:29:22;;;;;;;13.50;9.90;;;9.20;76.00;;;;;;6125571;23;20175;-68
2020/12/15 14:31:51;;;;;;;16.38;11.90;;;9.20;76.50;;;;;;6125717;23;20485;-69
2020/12/15 14:34:18;;;;;;;12.63;10.88;;;9.10;76.90;;;;;;6121555;23;20251;-69
2020/12/15 14:36:44;;;;;;;18.98;14.50;;;9.10;77.40;;;;;;6125608;23;20170;-68
2020/12/15 14:39:11;;;;;;;15.70;10.32;;;9.10;77.50;;;;;;6124811;23;20531;-69
2020/12/15 14:41:37;;;;;;;19.55;14.70;;;9.00;77.90;;;;;;6125135;23;20200;-68
2020/12/15 14:44:04;;;;;;;25.60;15.48;;;9.00;77.90;;;;;;6124889;23;20243;-68
2020/12/15 14:46:32;;;;;;;24.85;14.85;;;9.00;78.10;;;;;;6124971;23;20168;-69
2020/12/15 14:49:02;;;;;;;29.55;17.35;;;9.10;78.40;;;;;;6125570;23;20234;-69
2020/12/15 14:51:28;;;;;;;24.75;17.20;;;9.00;78.30;;;;;;6124850;23;20242;-68
2020/12/15 14:53:55;;;;;;;32.33;18.75;;;9.00;78.50;;;;;;6117367;23;20177;-68
2020/12/15 14:56:22;;;;;;;31.45;20.13;;;9.00;78.40;;;;;;6125053;23;20187;-69
2020/12/15 14:58:49;;;;;;;26.98;18.98;;;9.00;78.40;;;;;;6124119;23;20168;-69
2020/12/15 15:01:16;;;;;;;21.60;14.70;;;9.00;78.60;;;;;;6124971;23;20442;-68
2020/12/15 15:03:44;;;;;;;25.98;17.10;;;9.00;78.70;;;;;;6124415;23;20169;-69
2020/12/15 15:06:12;;;;;;;21.23;14.18;;;9.00;78.80;;;;;;6124988;23;20169;-68
2020/12/15 15:08:39;;;;;;;24.30;16.55;;;9.00;78.70;;;;;;6124173;23;20169;-68
2020/12/15 15:11:08;;;;;;;23.13;17.08;;;9.00;78.80;;;;;;6124930;23;20195;-69
2020/12/15 15:13:34;;;;;;;24.95;17.02;;;8.90;78.70;;;;;;6124840;23;20274;-69
2020/12/15 15:16:01;;;;;;;24.05;15.68;;;8.90;78.90;;;;;;6125087;23;20169;-69
2020/12/15 15:18:28;;;;;;;21.20;14.60;;;8.90;79.00;;;;;;6124292;23;20694;-68
2020/12/15 15:20:54;;;;;;;18.13;12.98;;;8.90;79.20;;;;;;6125433;23;20164;-68
2020/12/15 15:23:24;;;;;;;24.25;14.43;;;8.90;79.40;;;;;;6125387;23;20165;-68
2020/12/15 15:26:23;;;;;;;16.60;12.48;;;8.80;79.40;;;;;;6125733;23;20164;-68
2020/12/15 15:28:51;;;;;;;14.18;11.05;;;8.80;79.70;;;;;;6125557;23;20160;-69
2020/12/15 15:31:18;;;;;;;13.68;11.05;;;8.80;79.70;;;;;;6125576;23;20196;-68
2020/12/15 15:33:44;;;;;;;23.02;15.05;;;8.80;79.80;;;;;;6123454;23;20168;-69
2020/12/15 15:39:34;;;;;;;18.67;14.60;;;8.70;80.20;;;;;;6125069;23;20178;-68
2020/12/15 15:42:01;;;;;;;16.88;13.10;;;8.60;80.70;;;;;;6124636;23;20168;-68
2020/12/15 15:44:31;;;;;;;17.63;14.02;;;8.50;80.70;;;;;;6125569;23;20160;-68
2020/12/15 15:47:03;;;;;;;20.17;13.20;;;8.50;81.00;;;;;;6125555;23;20682;-68
2020/12/15 15:49:40;;;;;;;17.95;12.88;;;8.40;81.20;;;;;;6125523;23;20157;-68
2020/12/15 15:52:07;;;;;;;23.00;14.57;;;8.40;82.40;;;;;;6125862;23;20199;-68
2020/12/15 15:54:36;;;;;;;16.13;12.65;;;8.40;81.80;;;;;;6125079;23;20168;-68
2020/12/15 15:57:02;;;;;;;15.43;13.52;;;8.40;82.10;;;;;;6124238;23;20164;-69
2020/12/15 15:59:30;;;;;;;17.13;13.80;;;8.40;82.20;;;;;;6125495;23;20175;-68
2020/12/15 16:02:33;;;;;;;17.70;14.20;;;8.40;82.20;;;;;;6125716;23;20164;-69
2020/12/15 16:05:04;;;;;;;20.15;14.13;;;8.40;82.20;;;;;;6126336;23;20152;-69
2020/12/15 16:07:31;;;;;;;18.48;14.00;;;8.40;82.20;;;;;;6124113;23;20674;-69
2020/12/15 16:10:01;;;;;;;24.40;18.83;;;8.40;82.40;;;;;;6126271;23;20153;-68
2020/12/15 16:12:46;;;;;;;22.08;13.73;;;8.30;82.50;;;;;;6124540;23;20160;-68
2020/12/15 16:15:13;;;;;;;19.85;14.98;;;8.30;82.70;;;;;;6125823;23;20159;-69
2020/12/15 16:17:39;;;;;;;20.95;13.43;;;8.30;82.70;;;;;;6124813;23;20224;-68
2020/12/15 16:20:06;;;;;;;20.60;14.32;;;8.30;82.70;;;;;;6124686;23;20192;-69
2020/12/15 16:23:04;;;;;;;23.75;15.85;;;8.30;82.70;;;;;;6125992;23;20153;-68
2020/12/15 16:25:37;;;;;;;28.08;18.80;;;8.30;82.70;;;;;;6125881;23;20255;-68
2020/12/15 16:28:04;;;;;;;27.88;18.05;;;8.20;82.90;;;;;;6124287;23;20232;-69
2020/12/15 16:30:30;;;;;;;26.70;17.45;;;8.20;82.80;;;;;;6122892;23;20199;-69
2020/12/15 16:32:57;;;;;;;26.52;17.50;;;8.20;82.90;;;;;;6125568;23;20163;-69
2020/12/15 16:35:24;;;;;;;31.27;21.38;;;8.20;82.90;;;;;;6125609;23;20167;-68
2020/12/15 16:37:51;;;;;;;40.88;24.15;;;8.20;82.90;;;;;;6125640;23;20635;-68
2020/12/15 16:40:21;;;;;;;55.88;35.30;;;8.10;83.50;;;;;;6125438;23;20160;-68
2020/12/15 16:42:49;;;;;;;37.25;25.92;;;8.00;84.10;;;;;;6127751;23;20160;-68